sensor_id;sensor_type;location;lat;lon;timestamp;pressure;altitude;pressure_sealevel;temperature;humidity
12475;BME280;6302;42.624;23.334;2023-04-19T00:01:54;92892.34;;;9.65;100.00
12475;BME280;6302;42.624;23.334;2023-04-19T00:04:20;92886.63;;;9.70;100.00
12475;BME280;6302;42.624;23.334;2023-04-19T00:06:47;92885.06;;;9.76;100.00
12475;BME280;6302;42.624;23.334;2023-04-19T00:09:16;92882.75;;;9.78;100.00
12475;BME280;6302;42.624;23.334;2023-04-19T00:11:43;92888.03;;;9.78;100.00
12475;BME280;6302;42.624;23.334;2023-04-19T00:14:09;92884.63;;;9.78;100.00
12475;BME280;6302;42.624;23.334;2023-04-19T00:16:36;92887.69;;;9.76;100.00
12475;BME280;6302;42.624;23.334;2023-04-19T00:19:04;92876.09;;;9.67;100.00
12475;BME280;6302;42.624;23.334;2023-04-19T00:21:31;92879.78;;;9.73;100.00
12475;BME280;6302;42.624;23.334;2023-04-19T00:23:58;92873.81;;;9.65;100.00
12475;BME280;6302;42.624;23.334;2023-04-19T00:26:25;92872.78;;;9.59;100.00
12475;BME280;6302;42.624;23.334;2023-04-19T00:28:51;92871.69;;;9.53;100.00
12475;BME280;6302;42.624;23.334;2023-04-19T00:31:19;92869.44;;;9.55;100.00
12475;BME280;6302;42.624;23.334;2023-04-19T00:33:45;92870.81;;;9.63;100.00
12475;BME280;6302;42.624;23.334;2023-04-19T00:36:14;92867.75;;;9.68;100.00
12475;BME280;6302;42.624;23.334;2023-04-19T00:38:40;92872.25;;;9.71;100.00
12475;BME280;6302;42.624;23.334;2023-04-19T00:41:07;92870.03;;;9.66;100.00
12475;BME280;6302;42.624;23.334;2023-04-19T00:43:34;92870.63;;;9.81;100.00
12475;BME280;6302;42.624;23.334;2023-04-19T00:46:01;92873.34;;;9.77;100.00
12475;BME280;6302;42.624;23.334;2023-04-19T00:48:28;92864.84;;;9.59;100.00
12475;BME280;6302;42.624;23.334;2023-04-19T00:50:55;92861.84;;;9.57;100.00
12475;BME280;6302;42.624;23.334;2023-04-19T00:53:24;92860.72;;;9.55;100.00
12475;BME280;6302;42.624;23.334;2023-04-19T00:55:51;92859.91;;;9.61;100.00
12475;BME280;6302;42.624;23.334;2023-04-19T00:58:18;92868.19;;;9.63;100.00
12475;BME280;6302;42.624;23.334;2023-04-19T01:00:45;92857.94;;;9.65;100.00
12475;BME280;6302;42.624;23.334;2023-04-19T01:03:11;92859.06;;;9.68;100.00
12475;BME280;6302;42.624;23.334;2023-04-19T01:05:38;92859.13;;;9.64;100.00
12475;BME280;6302;42.624;23.334;2023-04-19T01:08:05;92852.41;;;9.56;100.00
12475;BME280;6302;42.624;23.334;2023-04-19T01:10:34;92845.31;;;9.46;100.00
12475;BME280;6302;42.624;23.334;2023-04-19T01:13:01;92840.81;;;9.43;100.00
12475;BME280;6302;42.624;23.334;2023-04-19T01:15:28;92844.19;;;9.47;100.00
12475;BME280;6302;42.624;23.334;2023-04-19T01:17:55;92846.84;;;9.47;100.00
12475;BME280;6302;42.624;23.334;2023-04-19T01:20:22;92841.97;;;9.42;100.00
12475;BME280;6302;42.624;23.334;2023-04-19T01:22:50;92845.31;;;9.46;100.00
12475;BME280;6302;42.624;23.334;2023-04-19T01:25:17;92838.56;;;9.42;100.00
12475;BME280;6302;42.624;23.334;2023-04-19T01:27:44;92844.19;;;9.47;100.00
12475;BME280;6302;42.624;23.334;2023-04-19T01:30:11;92853.69;;;9.41;100.00
12475;BME280;6302;42.624;23.334;2023-04-19T01:32:38;92847.78;;;9.30;100.00
12475;BME280;6302;42.624;23.334;2023-04-19T01:35:05;92854.19;;;9.33;100.00
12475;BME280;6302;42.624;23.334;2023-04-19T01:37:34;92838.69;;;9.31;100.00
12475;BME280;6302;42.624;23.334;2023-04-19T01:40:02;92848.97;;;9.22;100.00
12475;BME280;6302;42.624;23.334;2023-04-19T01:42:29;92849.34;;;9.24;100.00
12475;BME280;6302;42.624;23.334;2023-04-19T01:44:56;92855.81;;;9.20;100.00
12475;BME280;6302;42.624;23.334;2023-04-19T01:47:23;92851.97;;;9.24;100.00
12475;BME280;6302;42.624;23.334;2023-04-19T01:49:50;92844.84;;;9.21;100.00
12475;BME280;6302;42.624;23.334;2023-04-19T01:52:16;92838.88;;;9.13;100.00
12475;BME280;6302;42.624;23.334;2023-04-19T01:54:43;92839.31;;;9.08;100.00
12475;BME280;6302;42.624;23.334;2023-04-19T01:57:11;92840.41;;;9.11;100.00
12475;BME280;6302;42.624;23.334;2023-04-19T01:59:40;92844.34;;;8.96;100.00
12475;BME280;6302;42.624;23.334;2023-04-19T02:02:07;92838.75;;;8.87;100.00
12475;BME280;6302;42.624;23.334;2023-04-19T02:04:34;92837.63;;;8.88;100.00
12475;BME280;6302;42.624;23.334;2023-04-19T02:07:01;92827.47;;;8.83;100.00
12475;BME280;6302;42.624;23.334;2023-04-19T02:09:28;92831.25;;;8.82;100.00
12475;BME280;6302;42.624;23.334;2023-04-19T02:11:55;92839.91;;;8.86;100.00
12475;BME280;6302;42.624;23.334;2023-04-19T02:14:23;92844.13;;;8.76;100.00
12475;BME280;6302;42.624;23.334;2023-04-19T02:16:50;92830.13;;;8.79;100.00
12475;BME280;6302;42.624;23.334;2023-04-19T02:19:17;92842.59;;;8.79;100.00
12475;BME280;6302;42.624;23.334;2023-04-19T02:21:44;92833.16;;;8.78;100.00
12475;BME280;6302;42.624;23.334;2023-04-19T02:24:11;92833.94;;;8.75;100.00
12475;BME280;6302;42.624;23.334;2023-04-19T02:26:38;92831.03;;;8.62;100.00
12475;BME280;6302;42.624;23.334;2023-04-19T02:29:05;92834.78;;;8.65;100.00
12475;BME280;6302;42.624;23.334;2023-04-19T02:31:33;92828.75;;;8.64;100.00
12475;BME280;6302;42.624;23.334;2023-04-19T02:33:59;92830.38;;;8.47;100.00
12475;BME280;6302;42.624;23.334;2023-04-19T02:36:26;92828.84;;;8.54;100.00
12475;BME280;6302;42.624;23.334;2023-04-19T02:38:53;92821.69;;;8.54;100.00
12475;BME280;6302;42.624;23.334;2023-04-19T02:41:20;92822.50;;;8.44;100.00
12475;BME280;6302;42.624;23.334;2023-04-19T02:43:47;92817.94;;;8.48;100.00
12475;BME280;6302;42.624;23.334;2023-04-19T02:46:13;92821.78;;;8.40;100.00
12475;BME280;6302;42.624;23.334;2023-04-19T02:48:43;92830.03;;;8.42;100.00
12475;BME280;6302;42.624;23.334;2023-04-19T02:51:14;92823.25;;;8.44;100.00
12475;BME280;6302;42.624;23.334;2023-04-19T02:53:41;92827.41;;;8.45;100.00
12475;BME280;6302;42.624;23.334;2023-04-19T02:56:08;92829.19;;;8.59;100.00
12475;BME280;6302;42.624;23.334;2023-04-19T02:58:35;92826.22;;;8.50;100.00
12475;BME280;6302;42.624;23.334;2023-04-19T03:01:01;92833.72;;;8.59;100.00
12475;BME280;6302;42.624;23.334;2023-04-19T03:03:28;92831.84;;;8.52;100.00
12475;BME280;6302;42.624;23.334;2023-04-19T03:05:56;92835.63;;;8.55;100.00
12475;BME280;6302;42.624;23.334;2023-04-19T03:08:23;92832.66;;;8.49;100.00
12475;BME280;6302;42.624;23.334;2023-04-19T03:10:50;92836.41;;;8.52;100.00
12475;BME280;6302;42.624;23.334;2023-04-19T03:13:17;92839.47;;;8.46;100.00
12475;BME280;6302;42.624;23.334;2023-04-19T03:15:44;92839.06;;;8.48;100.00
12475;BME280;6302;42.624;23.334;2023-04-19T03:18:10;92839.06;;;8.48;100.00
12475;BME280;6302;42.624;23.334;2023-04-19T03:20:37;92835.78;;;8.33;100.00
12475;BME280;6302;42.624;23.334;2023-04-19T03:23:05;92834.25;;;8.36;100.00
12475;BME280;6302;42.624;23.334;2023-04-19T03:25:32;92833.09;;;8.37;100.00
12475;BME280;6302;42.624;23.334;2023-04-19T03:27:59;92833.44;;;8.42;100.00
12475;BME280;6302;42.624;23.334;2023-04-19T03:30:26;92824.03;;;8.41;100.00
12475;BME280;6302;42.624;23.334;2023-04-19T03:32:52;92827.41;;;8.45;100.00
12475;BME280;6302;42.624;23.334;2023-04-19T03:35:19;92825.91;;;8.41;100.00
12475;BME280;6302;42.624;23.334;2023-04-19T03:37:49;92833.50;;;8.39;100.00
12475;BME280;6302;42.624;23.334;2023-04-19T03:40:18;92831.97;;;8.41;100.00
12475;BME280;6302;42.624;23.334;2023-04-19T03:42:45;92831.97;;;8.38;100.00
12475;BME280;6302;42.624;23.334;2023-04-19T03:45:12;92833.09;;;8.40;100.00
12475;BME280;6302;42.624;23.334;2023-04-19T03:47:38;92819.13;;;8.40;100.00
12475;BME280;6302;42.624;23.334;2023-04-19T03:50:06;92822.94;;;8.39;100.00
12475;BME280;6302;42.624;23.334;2023-04-19T03:52:33;92811.13;;;8.50;100.00
12475;BME280;6302;42.624;23.334;2023-04-19T03:55:00;92812.22;;;8.57;100.00
12475;BME280;6302;42.624;23.334;2023-04-19T03:57:29;92819.06;;;8.50;100.00
12475;BME280;6302;42.624;23.334;2023-04-19T03:59:55;92818.38;;;8.39;100.00
12475;BME280;6302;42.624;23.334;2023-04-19T04:02:22;92816.06;;;8.48;100.00
12475;BME280;6302;42.624;23.334;2023-04-19T04:04:53;92824.81;;;8.35;100.00
12475;BME280;6302;42.624;23.334;2023-04-19T04:07:20;92821.41;;;8.41;100.00
12475;BME280;6302;42.624;23.334;2023-04-19T04:09:47;92822.94;;;8.39;100.00
12475;BME280;6302;42.624;23.334;2023-04-19T04:12:14;92821.06;;;8.32;100.00
12475;BME280;6302;42.624;23.334;2023-04-19T04:14:42;92821.47;;;8.31;100.00
12475;BME280;6302;42.624;23.334;2023-04-19T04:17:10;92827.50;;;8.28;100.00
12475;BME280;6302;42.624;23.334;2023-04-19T04:19:37;92831.63;;;8.32;100.00
12475;BME280;6302;42.624;23.334;2023-04-19T04:22:05;92830.50;;;8.33;100.00
12475;BME280;6302;42.624;23.334;2023-04-19T04:24:37;92829.00;;;8.32;100.00
12475;BME280;6302;42.624;23.334;2023-04-19T04:27:05;92829.72;;;8.36;100.00
12475;BME280;6302;42.624;23.334;2023-04-19T04:29:38;92836.44;;;8.44;100.00
12475;BME280;6302;42.624;23.334;2023-04-19T04:32:07;92835.72;;;8.40;100.00
12475;BME280;6302;42.624;23.334;2023-04-19T04:34:34;92818.47;;;8.25;100.00
12475;BME280;6302;42.624;23.334;2023-04-19T04:37:02;92835.84;;;8.26;100.00
12475;BME280;6302;42.624;23.334;2023-04-19T04:39:29;92845.22;;;8.31;100.00
12475;BME280;6302;42.624;23.334;2023-04-19T04:41:59;92840.34;;;8.29;100.00
12475;BME280;6302;42.624;23.334;2023-04-19T04:44:26;92850.09;;;8.36;100.00
12475;BME280;6302;42.624;23.334;2023-04-19T04:46:53;92849.38;;;8.25;100.00
12475;BME280;6302;42.624;23.334;2023-04-19T04:49:21;92848.25;;;8.22;100.00
12475;BME280;6302;42.624;23.334;2023-04-19T04:51:48;92847.09;;;8.30;100.00
12475;BME280;6302;42.624;23.334;2023-04-19T04:54:15;92847.88;;;8.27;100.00
12475;BME280;6302;42.624;23.334;2023-04-19T04:56:41;92850.13;;;8.25;100.00
12475;BME280;6302;42.624;23.334;2023-04-19T04:59:08;92847.50;;;8.25;100.00
12475;BME280;6302;42.624;23.334;2023-04-19T05:01:35;92845.22;;;8.34;100.00
12475;BME280;6302;42.624;23.334;2023-04-19T05:04:02;92841.47;;;8.28;100.00
12475;BME280;6302;42.624;23.334;2023-04-19T05:06:30;92851.63;;;8.33;100.00
12475;BME280;6302;42.624;23.334;2023-04-19T05:08:57;92846.69;;;8.35;100.00
12475;BME280;6302;42.624;23.334;2023-04-19T05:11:24;92855.38;;;8.32;100.00
12475;BME280;6302;42.624;23.334;2023-04-19T05:13:50;92851.59;;;8.37;100.00
12475;BME280;6302;42.624;23.334;2023-04-19T05:16:17;92852.38;;;8.34;100.00
12475;BME280;6302;42.624;23.334;2023-04-19T05:18:44;92856.78;;;8.51;100.00
12475;BME280;6302;42.624;23.334;2023-04-19T05:21:11;92851.56;;;8.44;100.00
12475;BME280;6302;42.624;23.334;2023-04-19T05:23:39;92856.03;;;8.50;100.00
12475;BME280;6302;42.624;23.334;2023-04-19T05:26:06;92852.63;;;8.50;100.00
12475;BME280;6302;42.624;23.334;2023-04-19T05:28:34;92844.66;;;8.57;100.00
12475;BME280;6302;42.624;23.334;2023-04-19T05:31:01;92851.41;;;8.62;100.00
12475;BME280;6302;42.624;23.334;2023-04-19T05:33:31;92848.41;;;8.60;100.00
12475;BME280;6302;42.624;23.334;2023-04-19T05:35:58;92854.03;;;8.65;100.00
12475;BME280;6302;42.624;23.334;2023-04-19T05:38:25;92861.97;;;8.62;100.00
12475;BME280;6302;42.624;23.334;2023-04-19T05:40:53;92854.78;;;8.66;100.00
12475;BME280;6302;42.624;23.334;2023-04-19T05:43:19;92852.84;;;8.73;100.00
12475;BME280;6302;42.624;23.334;2023-04-19T05:45:47;92861.59;;;8.60;100.00
12475;BME280;6302;42.624;23.334;2023-04-19T05:48:13;92857.13;;;8.57;100.00
12475;BME280;6302;42.624;23.334;2023-04-19T05:50:40;92857.06;;;8.64;100.00
12475;BME280;6302;42.624;23.334;2023-04-19T05:53:07;92856.59;;;8.72;100.00
12475;BME280;6302;42.624;23.334;2023-04-19T05:55:34;92861.03;;;8.86;100.00
12475;BME280;6302;42.624;23.334;2023-04-19T05:58:02;92864.56;;;8.69;100.00
12475;BME280;6302;42.624;23.334;2023-04-19T06:00:29;92861.19;;;8.68;100.00
12475;BME280;6302;42.624;23.334;2023-04-19T06:02:55;92863.75;;;8.79;100.00
12475;BME280;6302;42.624;23.334;2023-04-19T06:05:22;92867.50;;;8.81;100.00
12475;BME280;6302;42.624;23.334;2023-04-19T06:07:49;92869.38;;;8.81;100.00
12475;BME280;6302;42.624;23.334;2023-04-19T06:10:16;92865.56;;;8.85;100.00
12475;BME280;6302;42.624;23.334;2023-04-19T06:12:42;92861.03;;;8.86;100.00
12475;BME280;6302;42.624;23.334;2023-04-19T06:15:11;92864.78;;;8.88;100.00
12475;BME280;6302;42.624;23.334;2023-04-19T06:17:38;92866.94;;;9.00;100.00
12475;BME280;6302;42.624;23.334;2023-04-19T06:20:06;92868.63;;;9.21;100.00
12475;BME280;6302;42.624;23.334;2023-04-19T06:22:34;92868.19;;;9.30;100.00
12475;BME280;6302;42.624;23.334;2023-04-19T06:25:07;92867.94;;;9.13;100.00
12475;BME280;6302;42.624;23.334;2023-04-19T06:27:34;92880.53;;;8.99;100.00
12475;BME280;6302;42.624;23.334;2023-04-19T06:30:01;92876.06;;;8.96;100.00
12475;BME280;6302;42.624;23.334;2023-04-19T06:32:29;92870.78;;;8.96;100.00
12475;BME280;6302;42.624;23.334;2023-04-19T06:34:56;92874.97;;;8.86;100.00
12475;BME280;6302;42.624;23.334;2023-04-19T06:37:23;92879.91;;;8.84;100.00
12475;BME280;6302;42.624;23.334;2023-04-19T06:39:50;92879.88;;;8.88;100.00
12475;BME280;6302;42.624;23.334;2023-04-19T06:42:16;92876.34;;;9.05;100.00
12475;BME280;6302;42.624;23.334;2023-04-19T06:44:44;92878.84;;;9.19;100.00
12475;BME280;6302;42.624;23.334;2023-04-19T06:47:11;92879.59;;;9.23;100.00
12475;BME280;6302;42.624;23.334;2023-04-19T06:49:39;92874.16;;;9.37;100.00
12475;BME280;6302;42.624;23.334;2023-04-19T06:52:06;92878.56;;;9.47;100.00
12475;BME280;6302;42.624;23.334;2023-04-19T06:54:33;92868.63;;;9.58;100.00
12475;BME280;6302;42.624;23.334;2023-04-19T06:57:00;92878.31;;;9.72;100.00
12475;BME280;6302;42.624;23.334;2023-04-19T06:59:27;92883.59;;;9.72;100.00
12475;BME280;6302;42.624;23.334;2023-04-19T07:01:55;92894.19;;;9.72;100.00
12475;BME280;6302;42.624;23.334;2023-04-19T07:04:23;92887.34;;;9.74;100.00
12475;BME280;6302;42.624;23.334;2023-04-19T07:06:51;92882.84;;;9.71;100.00
12475;BME280;6302;42.624;23.334;2023-04-19T07:09:18;92891.72;;;9.88;100.00
12475;BME280;6302;42.624;23.334;2023-04-19T07:11:45;92904.47;;;9.97;100.00
12475;BME280;6302;42.624;23.334;2023-04-19T07:14:13;92895.97;;;10.12;100.00
12475;BME280;6302;42.624;23.334;2023-04-19T07:16:40;92895.25;;;10.12;100.00
12475;BME280;6302;42.624;23.334;2023-04-19T07:19:07;92895.41;;;10.28;100.00
12475;BME280;6302;42.624;23.334;2023-04-19T07:21:33;92891.22;;;10.30;100.00
12475;BME280;6302;42.624;23.334;2023-04-19T07:24:02;92897.94;;;10.35;100.00
12475;BME280;6302;42.624;23.334;2023-04-19T07:26:28;92897.16;;;10.38;100.00
12475;BME280;6302;42.624;23.334;2023-04-19T07:28:55;92900.78;;;10.21;100.00
12475;BME280;6302;42.624;23.334;2023-04-19T07:31:22;92892.09;;;10.20;100.00
12475;BME280;6302;42.624;23.334;2023-04-19T07:33:50;92900.94;;;10.37;100.00
12475;BME280;6302;42.624;23.334;2023-04-19T07:36:17;92891.06;;;10.41;100.00
12475;BME280;6302;42.624;23.334;2023-04-19T07:38:45;92895.06;;;10.53;100.00
12475;BME280;6302;42.624;23.334;2023-04-19T07:41:13;92898.91;;;10.75;100.00
12475;BME280;6302;42.624;23.334;2023-04-19T07:43:40;92892.16;;;10.70;100.00
12475;BME280;6302;42.624;23.334;2023-04-19T07:46:08;92898.00;;;10.58;100.00
12475;BME280;6302;42.624;23.334;2023-04-19T07:48:35;92896.47;;;10.61;100.00
12475;BME280;6302;42.624;23.334;2023-04-19T07:51:07;92891.28;;;10.54;100.00
12475;BME280;6302;42.624;23.334;2023-04-19T07:53:34;92899.31;;;10.73;100.00
12475;BME280;6302;42.624;23.334;2023-04-19T07:56:01;92894.69;;;10.54;100.00
12475;BME280;6302;42.624;23.334;2023-04-19T07:58:29;92891.31;;;10.50;100.00
12475;BME280;6302;42.624;23.334;2023-04-19T08:00:56;92900.25;;;10.60;100.00
12475;BME280;6302;42.624;23.334;2023-04-19T08:03:23;92900.09;;;10.70;100.00
12475;BME280;6302;42.624;23.334;2023-04-19T08:05:50;92895.41;;;10.55;100.00
12475;BME280;6302;42.624;23.334;2023-04-19T08:08:17;92892.94;;;10.67;100.00
12475;BME280;6302;42.624;23.334;2023-04-19T08:10:44;92892.84;;;10.74;100.00
12475;BME280;6302;42.624;23.334;2023-04-19T08:13:11;92899.97;;;10.81;100.00
12475;BME280;6302;42.624;23.334;2023-04-19T08:15:39;92901.06;;;10.83;100.00
12475;BME280;6302;42.624;23.334;2023-04-19T08:18:06;92892.19;;;10.93;100.00
12475;BME280;6302;42.624;23.334;2023-04-19T08:20:33;92898.44;;;10.80;100.00
12475;BME280;6302;42.624;23.334;2023-04-19T08:23:01;92892.28;;;10.86;100.00
12475;BME280;6302;42.624;23.334;2023-04-19T08:25:30;92902.97;;;10.56;100.00
12475;BME280;6302;42.624;23.334;2023-04-19T08:27:57;92897.88;;;10.69;100.00
12475;BME280;6302;42.624;23.334;2023-04-19T08:30:24;92894.63;;;10.58;100.00
12475;BME280;6302;42.624;23.334;2023-04-19T08:32:52;92891.47;;;10.66;100.00
12475;BME280;6302;42.624;23.334;2023-04-19T08:35:19;92893.91;;;10.80;100.00
12475;BME280;6302;42.624;23.334;2023-04-19T08:37:47;92909.47;;;10.78;100.00
12475;BME280;6302;42.624;23.334;2023-04-19T08:40:14;92895.66;;;10.64;100.00
12475;BME280;6302;42.624;23.334;2023-04-19T08:42:41;92891.84;;;10.65;100.00
12475;BME280;6302;42.624;23.334;2023-04-19T08:45:08;92889.25;;;10.88;100.00
12475;BME280;6302;42.624;23.334;2023-04-19T08:47:39;92881.84;;;10.99;100.00
12475;BME280;6302;42.624;23.334;2023-04-19T08:50:08;92881.22;;;11.15;100.00
12475;BME280;6302;42.624;23.334;2023-04-19T08:52:36;92882.78;;;11.35;100.00
12475;BME280;6302;42.624;23.334;2023-04-19T08:55:03;92868.09;;;11.50;100.00
12475;BME280;6302;42.624;23.334;2023-04-19T08:57:30;92884.47;;;11.26;100.00
12475;BME280;6302;42.624;23.334;2023-04-19T08:59:59;92876.25;;;11.40;100.00
12475;BME280;6302;42.624;23.334;2023-04-19T09:02:26;92871.69;;;11.40;100.00
12475;BME280;6302;42.624;23.334;2023-04-19T09:04:53;92870.13;;;11.43;100.00
12475;BME280;6302;42.624;23.334;2023-04-19T09:07:23;92887.47;;;11.28;100.00
12475;BME280;6302;42.624;23.334;2023-04-19T09:10:04;92872.72;;;11.46;100.00
12475;BME280;6302;42.624;23.334;2023-04-19T09:12:32;92870.34;;;11.52;100.00
12475;BME280;6302;42.624;23.334;2023-04-19T09:15:00;92868.69;;;11.58;100.00
12475;BME280;6302;42.624;23.334;2023-04-19T09:17:28;92873.44;;;11.70;100.00
12475;BME280;6302;42.624;23.334;2023-04-19T09:19:56;92870.22;;;11.59;100.00
12475;BME280;6302;42.624;23.334;2023-04-19T09:22:24;92864.09;;;11.62;100.00
12475;BME280;6302;42.624;23.334;2023-04-19T09:24:52;92874.53;;;11.92;100.00
12475;BME280;6302;42.624;23.334;2023-04-19T09:27:26;92874.88;;;11.94;100.00
12475;BME280;6302;42.624;23.334;2023-04-19T09:29:53;92868.19;;;11.86;100.00
12475;BME280;6302;42.624;23.334;2023-04-19T09:32:20;92880.44;;;11.80;100.00
12475;BME280;6302;42.624;23.334;2023-04-19T09:34:51;92869.97;;;11.73;100.00
12475;BME280;6302;42.624;23.334;2023-04-19T09:37:19;92867.03;;;11.67;100.00
12475;BME280;6302;42.624;23.334;2023-04-19T09:39:47;92874.13;;;11.74;100.00
12475;BME280;6302;42.624;23.334;2023-04-19T09:42:14;92874.78;;;11.98;100.00
12475;BME280;6302;42.624;23.334;2023-04-19T09:44:54;92866.94;;;12.10;100.00
12475;BME280;6302;42.624;23.334;2023-04-19T09:47:24;92856.63;;;11.96;100.00
12475;BME280;6302;42.624;23.334;2023-04-19T09:50:08;92858.59;;;12.12;100.00
12475;BME280;6302;42.624;23.334;2023-04-19T09:52:35;92856.38;;;12.26;100.00
12475;BME280;6302;42.624;23.334;2023-04-19T09:55:05;92864.94;;;12.34;100.00
12475;BME280;6302;42.624;23.334;2023-04-19T09:57:33;92846.09;;;12.45;100.00
12475;BME280;6302;42.624;23.334;2023-04-19T10:00:01;92845.97;;;12.68;100.00
12475;BME280;6302;42.624;23.334;2023-04-19T10:02:31;92842.34;;;12.42;100.00
12475;BME280;6302;42.624;23.334;2023-04-19T10:04:58;92845.97;;;12.68;100.00
12475;BME280;6302;42.624;23.334;2023-04-19T10:07:25;92845.06;;;12.90;100.00
12475;BME280;6302;42.624;23.334;2023-04-19T10:09:54;92835.81;;;12.95;100.00
12475;BME280;6302;42.624;23.334;2023-04-19T10:12:23;92849.63;;;13.06;100.00
12475;BME280;6302;42.624;23.334;2023-04-19T10:14:52;92838.41;;;13.15;100.00
12475;BME280;6302;42.624;23.334;2023-04-19T10:17:20;92835.63;;;13.34;100.00
12475;BME280;6302;42.624;23.334;2023-04-19T10:19:50;92829.84;;;13.07;100.00
12475;BME280;6302;42.624;23.334;2023-04-19T10:22:18;92840.97;;;13.02;100.00
12475;BME280;6302;42.624;23.334;2023-04-19T10:25:12;92836.50;;;13.15;100.00
12475;BME280;6302;42.624;23.334;2023-04-19T10:27:42;92835.28;;;13.32;100.00
12475;BME280;6302;42.624;23.334;2023-04-19T10:30:17;92826.03;;;13.37;100.00
12475;BME280;6302;42.624;23.334;2023-04-19T10:32:45;92834.09;;;13.49;100.00
12475;BME280;6302;42.624;23.334;2023-04-19T10:35:17;92834.13;;;13.33;100.00
12475;BME280;6302;42.624;23.334;2023-04-19T10:38:08;92832.50;;;13.23;100.00
12475;BME280;6302;42.624;23.334;2023-04-19T10:40:56;92831.75;;;13.23;100.00
12475;BME280;6302;42.624;23.334;2023-04-19T10:43:27;92822.00;;;13.16;100.00
12475;BME280;6302;42.624;23.334;2023-04-19T10:45:58;92812.69;;;13.24;100.00
12475;BME280;6302;42.624;23.334;2023-04-19T10:48:40;92815.59;;;13.58;100.00
12475;BME280;6302;42.624;23.334;2023-04-19T10:51:13;92807.13;;;13.76;100.00
12475;BME280;6302;42.624;23.334;2023-04-19T10:54:02;92803.16;;;13.68;100.00
12475;BME280;6302;42.624;23.334;2023-04-19T10:57:02;92805.25;;;13.48;100.00
12475;BME280;6302;42.624;23.334;2023-04-19T10:59:32;92806.13;;;13.57;100.00
12475;BME280;6302;42.624;23.334;2023-04-19T11:02:00;92800.16;;;13.66;100.00
12475;BME280;6302;42.624;23.334;2023-04-19T11:07:37;92800.22;;;13.91;100.00
12475;BME280;6302;42.624;23.334;2023-04-19T11:10:06;92803.88;;;13.97;100.00
12475;BME280;6302;42.624;23.334;2023-04-19T11:12:33;92799.06;;;14.05;100.00
12475;BME280;6302;42.624;23.334;2023-04-19T11:15:01;92803.88;;;14.22;100.00
12475;BME280;6302;42.624;23.334;2023-04-19T11:17:29;92803.66;;;14.04;100.00
12475;BME280;6302;42.624;23.334;2023-04-19T11:19:57;92795.22;;;14.06;100.00
12475;BME280;6302;42.624;23.334;2023-04-19T11:22:31;92803.66;;;14.04;100.00
12475;BME280;6302;42.624;23.334;2023-04-19T11:25:04;92795.75;;;14.01;100.00
12475;BME280;6302;42.624;23.334;2023-04-19T11:27:31;92795.25;;;14.18;100.00
12475;BME280;6302;42.624;23.334;2023-04-19T11:30:03;92803.38;;;14.40;100.00
12475;BME280;6302;42.624;23.334;2023-04-19T11:32:30;92806.88;;;14.62;100.00
12475;BME280;6302;42.624;23.334;2023-04-19T11:35:03;92803.28;;;14.31;100.00
12475;BME280;6302;42.624;23.334;2023-04-19T11:37:32;92798.47;;;14.51;98.28
12475;BME280;6302;42.624;23.334;2023-04-19T11:39:59;92799.84;;;14.43;95.62
12475;BME280;6302;42.624;23.334;2023-04-19T11:42:25;92793.25;;;14.48;94.70
12475;BME280;6302;42.624;23.334;2023-04-19T11:44:54;92799.41;;;14.57;93.78
12475;BME280;6302;42.624;23.334;2023-04-19T11:47:23;92798.78;;;14.78;94.82
12475;BME280;6302;42.624;23.334;2023-04-19T11:49:50;92805.94;;;14.56;93.69
12475;BME280;6302;42.624;23.334;2023-04-19T11:52:21;92794.13;;;14.91;95.14
12475;BME280;6302;42.624;23.334;2023-04-19T11:54:48;92791.34;;;15.08;90.32
12475;BME280;6302;42.624;23.334;2023-04-19T11:57:25;92784.16;;;15.17;87.92
12475;BME280;6302;42.624;23.334;2023-04-19T12:00:02;92791.69;;;14.84;88.18
12475;BME280;6302;42.624;23.334;2023-04-19T12:02:36;92801.38;;;15.04;88.27
12475;BME280;6302;42.624;23.334;2023-04-19T12:05:07;92792.63;;;15.03;83.84
12475;BME280;6302;42.624;23.334;2023-04-19T12:07:34;92792.44;;;14.97;82.28
12475;BME280;6302;42.624;23.334;2023-04-19T12:10:07;92787.44;;;15.21;83.38
12475;BME280;6302;42.624;23.334;2023-04-19T12:12:35;92779.44;;;15.21;81.54
12475;BME280;6302;42.624;23.334;2023-04-19T12:15:02;92775.59;;;15.44;80.55
12475;BME280;6302;42.624;23.334;2023-04-19T12:17:29;92772.00;;;15.38;79.91
12475;BME280;6302;42.624;23.334;2023-04-19T12:19:57;92771.13;;;15.41;78.93
12475;BME280;6302;42.624;23.334;2023-04-19T12:22:24;92772.53;;;15.67;82.17
12475;BME280;6302;42.624;23.334;2023-04-19T12:24:51;92775.22;;;15.67;78.63
12475;BME280;6302;42.624;23.334;2023-04-19T12:27:18;92781.28;;;15.89;78.20
12475;BME280;6302;42.624;23.334;2023-04-19T12:29:45;92786.50;;;15.71;77.22
12475;BME280;6302;42.624;23.334;2023-04-19T12:32:12;92782.38;;;15.02;77.80
12475;BME280;6302;42.624;23.334;2023-04-19T12:34:40;92781.22;;;15.03;82.83
12475;BME280;6302;42.624;23.334;2023-04-19T12:37:08;92761.25;;;14.94;84.05
12475;BME280;6302;42.624;23.334;2023-04-19T12:39:35;92770.75;;;15.08;82.40
12475;BME280;6302;42.624;23.334;2023-04-19T12:42:02;92757.31;;;14.99;82.47
12475;BME280;6302;42.624;23.334;2023-04-19T12:44:30;92762.56;;;15.24;76.51
12475;BME280;6302;42.624;23.334;2023-04-19T12:46:57;92756.59;;;15.42;75.69
12475;BME280;6302;42.624;23.334;2023-04-19T12:49:23;92761.75;;;15.15;76.66
12475;BME280;6302;42.624;23.334;2023-04-19T12:51:50;92763.03;;;15.10;80.26
12475;BME280;6302;42.624;23.334;2023-04-19T12:54:18;92765.56;;;15.14;80.62
12475;BME280;6302;42.624;23.334;2023-04-19T12:56:45;92767.88;;;15.24;78.92
12475;BME280;6302;42.624;23.334;2023-04-19T12:59:12;92774.84;;;15.22;78.26
12475;BME280;6302;42.624;23.334;2023-04-19T13:01:39;92765.63;;;15.01;78.55
12475;BME280;6302;42.624;23.334;2023-04-19T13:04:06;92770.09;;;15.04;80.98
12475;BME280;6302;42.624;23.334;2023-04-19T13:06:36;92766.59;;;14.94;81.72